Time;durP1;ratioP1;P1;durP2;ratioP2;P2;SDS_P1;SDS_P2;PMS_P1;PMS_P2;Temp;Humidity;BMP_temperature;BMP_pressure;BME280_temperature;BME280_humidity;BME280_pressure;Samples;Min_cycle;Max_cycle;Signal;HPM_P1;HPM_P2
2023/10/04 00:00:15;;;;;;;5.80;4.10;;;;;;;15.05;100.00;98062.81;106869;1264;25372;-77
2023/10/04 00:03:05;;;;;;;6.90;3.60;;;;;;;15.03;100.00;98078.15;106954;1279;23919;-76
2023/10/04 00:05:36;;;;;;;5.80;3.70;;;;;;;15.03;100.00;98113.03;106868;1277;25112;-77
2023/10/04 00:08:05;;;;;;;6.30;3.50;;;;;;;14.97;100.00;98141.10;106838;1268;22639;-77
2023/10/04 00:10:34;;;;;;;4.60;3.30;;;;;;;14.97;100.00;98152.48;106692;1271;22781;-77
2023/10/04 00:13:02;;;;;;;6.60;3.80;;;;;;;14.92;100.00;98155.66;106845;1268;24366;-77
2023/10/04 00:15:31;;;;;;;4.60;3.40;;;;;;;14.86;100.00;98166.48;106796;1268;25420;-77
2023/10/04 00:18:00;;;;;;;6.50;3.50;;;;;;;14.82;100.00;98162.70;106896;1266;22533;-77
2023/10/04 00:20:34;;;;;;;4.10;3.10;;;;;;;14.79;100.00;98172.36;106880;1279;22732;-77
2023/10/04 00:23:05;;;;;;;;;;;;;;;14.76;100.00;98177.86;106616;1279;25406;-78
2023/10/04 00:25:34;;;;;;;6.60;4.20;;;;;;;14.72;100.00;98183.79;106892;1279;25438;-76
2023/10/04 00:28:02;;;;;;;6.40;4.30;;;;;;;14.70;100.00;98190.90;106422;1275;22537;-77
2023/10/04 00:30:32;;;;;;;6.50;4.40;;;;;;;14.69;100.00;98201.57;106879;1272;24261;-77
2023/10/04 00:33:04;;;;;;;8.20;4.90;;;;;;;14.69;100.00;98197.89;106840;1259;24341;-77
2023/10/04 00:35:32;;;;;;;8.50;4.60;;;;;;;14.65;100.00;98207.40;106940;1272;24231;-77
2023/10/04 00:38:00;;;;;;;8.30;4.70;;;;;;;14.63;100.00;98206.86;106858;1265;24264;-77
2023/10/04 00:40:31;;;;;;;8.60;5.20;;;;;;;14.60;100.00;98218.02;106836;1270;22641;-77
2023/10/04 00:43:01;;;;;;;8.10;4.60;;;;;;;14.58;100.00;98227.39;106945;1279;22558;-77
2023/10/04 00:45:32;;;;;;;11.10;4.70;;;;;;;14.56;100.00;98226.05;106930;1268;22586;-77
2023/10/04 00:48:07;;;;;;;8.20;4.70;;;;;;;14.54;100.00;98235.27;106886;1265;25455;-77
2023/10/04 00:50:36;;;;;;;6.20;4.30;;;;;;;14.53;100.00;98237.79;106867;1279;23367;-77
2023/10/04 00:53:10;;;;;;;8.90;4.80;;;;;;;14.51;100.00;98239.73;106854;1268;22543;-77
2023/10/04 00:55:42;;;;;;;9.40;4.60;;;;;;;14.47;100.00;98249.16;106825;1276;22542;-76
2023/10/04 00:58:12;;;;;;;7.20;4.50;;;;;;;14.48;100.00;98258.35;106846;1279;23174;-77
2023/10/04 01:00:43;;;;;;;12.80;5.60;;;;;;;14.48;100.00;98258.98;106812;1277;22563;-75
2023/10/04 01:03:13;;;;;;;8.80;4.20;;;;;;;14.50;100.00;98263.34;106506;1279;22539;-77
2023/10/04 01:05:51;;;;;;;5.60;4.00;;;;;;;14.48;100.00;98272.67;106560;1277;24456;-76
2023/10/04 01:08:22;;;;;;;9.90;4.50;;;;;;;14.46;100.00;98278.86;106925;1276;22958;-77
2023/10/04 01:10:53;;;;;;;6.30;4.40;;;;;;;14.44;100.00;98285.64;106823;1270;22520;-77
2023/10/04 01:13:26;;;;;;;7.80;4.40;;;;;;;14.41;100.00;98294.98;106919;1268;25217;-76
2023/10/04 01:15:55;;;;;;;8.20;4.20;;;;;;;14.43;100.00;98306.70;106885;1279;25423;-75
2023/10/04 01:18:24;;;;;;;5.40;3.70;;;;;;;14.40;100.00;98303.52;106535;1265;22537;-75
2023/10/04 01:20:52;;;;;;;5.80;3.90;;;;;;;14.40;100.00;98308.52;106460;1272;22546;-77
2023/10/04 01:23:20;;;;;;;8.90;4.60;;;;;;;14.39;100.00;98308.49;106732;1268;25422;-77
2023/10/04 01:25:48;;;;;;;7.10;4.60;;;;;;;14.37;100.00;98310.94;106771;1266;24416;-77
2023/10/04 01:28:18;;;;;;;6.40;4.30;;;;;;;14.33;100.00;98314.65;106818;1275;22534;-77
2023/10/04 01:30:51;;;;;;;6.60;4.00;;;;;;;14.32;100.00;98326.20;106522;1272;25383;-76
2023/10/04 01:33:19;;;;;;;8.30;4.20;;;;;;;14.26;100.00;98332.65;106912;1268;25426;-76
2023/10/04 01:35:50;;;;;;;6.80;3.60;;;;;;;14.23;100.00;98335.70;106803;1273;22545;-77
2023/10/04 01:38:24;;;;;;;7.90;4.60;;;;;;;14.19;100.00;98342.69;106836;1268;22541;-76
2023/10/04 01:40:56;;;;;;;10.60;4.10;;;;;;;14.15;100.00;98347.73;106983;1279;23241;-76
2023/10/04 01:43:25;;;;;;;6.50;4.70;;;;;;;14.12;100.00;98352.57;106879;1265;22540;-76
2023/10/04 01:46:00;;;;;;;7.10;4.10;;;;;;;14.07;100.00;98359.05;106870;1279;22528;-77
2023/10/04 01:48:36;;;;;;;7.50;4.70;;;;;;;14.04;100.00;98359.21;106789;1275;22550;-77
2023/10/04 01:51:06;;;;;;;5.40;4.00;;;;;;;13.99;100.00;98370.63;106796;1261;24909;-76
2023/10/04 01:53:35;;;;;;;5.40;3.70;;;;;;;13.96;100.00;98375.20;106833;1276;25327;-76
2023/10/04 01:56:07;;;;;;;4.80;3.60;;;;;;;13.94;100.00;98376.44;106873;1265;22767;-76
2023/10/04 01:58:37;;;;;;;5.70;3.60;;;;;;;13.93;100.00;98372.96;106767;1274;22535;-75
2023/10/04 02:01:06;;;;;;;6.40;3.80;;;;;;;13.91;100.00;98380.91;106805;1268;25565;-76
2023/10/04 02:03:34;;;;;;;5.20;4.00;;;;;;;13.91;100.00;98393.58;106697;1264;22539;-76
2023/10/04 02:06:02;;;;;;;5.60;4.00;;;;;;;13.90;100.00;98394.91;106706;1268;25432;-75
2023/10/04 02:08:32;;;;;;;6.40;4.00;;;;;;;13.91;100.00;98399.61;106480;1264;22566;-75
2023/10/04 02:11:03;;;;;;;5.70;3.70;;;;;;;13.88;100.00;98405.37;106534;1268;24279;-76
2023/10/04 02:13:32;;;;;;;5.10;3.60;;;;;;;13.84;100.00;98404.09;106823;1257;25228;-75
2023/10/04 02:16:03;;;;;;;6.60;3.60;;;;;;;13.80;100.00;98408.14;106742;1279;22696;-76
2023/10/04 02:18:33;;;;;;;7.40;4.00;;;;;;;13.79;100.00;98416.77;106737;1268;22531;-75
2023/10/04 02:21:01;;;;;;;4.90;3.30;;;;;;;13.79;100.00;98420.04;106790;1268;22775;-77
2023/10/04 02:23:30;;;;;;;4.80;3.40;;;;;;;13.78;100.00;98422.77;106793;1265;23955;-75
2023/10/04 02:25:58;;;;;;;5.10;3.60;;;;;;;13.74;100.00;98430.02;106846;1279;22577;-77
2023/10/04 02:28:55;;;;;;;6.60;3.70;;;;;;;13.70;100.00;98428.20;106832;1279;24264;-75
2023/10/04 02:31:23;;;;;;;4.60;2.90;;;;;;;13.69;100.00;98435.00;106565;1269;25614;-77
2023/10/04 02:33:52;;;;;;;5.00;3.60;;;;;;;13.67;100.00;98437.31;106790;1280;22535;-74
2023/10/04 02:36:20;;;;;;;5.60;3.50;;;;;;;13.66;100.00;98440.59;106681;1266;24338;-75
2023/10/04 02:38:48;;;;;;;6.70;3.40;;;;;;;13.64;100.00;98445.51;106475;1266;24276;-76
2023/10/04 02:41:16;;;;;;;5.10;3.90;;;;;;;13.64;100.00;98446.75;106813;1268;22626;-76
2023/10/04 02:43:44;;;;;;;4.90;3.70;;;;;;;13.66;100.00;98453.59;106861;1279;22575;-78
2023/10/04 02:46:12;;;;;;;5.50;3.80;;;;;;;13.67;100.00;98464.23;106469;1279;23253;-76
2023/10/04 02:48:41;;;;;;;5.70;3.80;;;;;;;13.67;100.00;98460.34;106508;1266;25357;-75
2023/10/04 02:51:12;;;;;;;4.50;3.40;;;;;;;13.63;100.00;98460.25;106813;1279;23252;-76
2023/10/04 02:53:41;;;;;;;7.50;4.20;;;;;;;13.62;100.00;98469.54;106488;1279;24198;-77
2023/10/04 02:56:10;;;;;;;6.30;3.80;;;;;;;13.62;100.00;98467.80;106823;1279;24264;-75
2023/10/04 02:58:41;;;;;;;6.80;3.80;;;;;;;13.61;100.00;98479.85;106523;1279;26273;-76
2023/10/04 03:01:20;;;;;;;5.90;3.70;;;;;;;13.55;100.00;98483.18;106820;1279;22605;-76
2023/10/04 03:03:51;;;;;;;5.40;3.90;;;;;;;13.52;100.00;98487.24;106904;1279;25331;-76
2023/10/04 03:06:23;;;;;;;6.20;3.70;;;;;;;13.50;100.00;98495.25;106880;1279;24514;-75
2023/10/04 03:08:55;;;;;;;6.30;3.70;;;;;;;13.47;100.00;98499.91;106531;1279;22550;-76
2023/10/04 03:11:25;;;;;;;7.70;4.10;;;;;;;13.44;100.00;98502.52;106544;1266;25546;-77
2023/10/04 03:13:53;;;;;;;5.80;3.60;;;;;;;13.37;100.00;98505.25;106416;1279;24286;-75
2023/10/04 03:16:21;;;;;;;6.80;3.50;;;;;;;13.33;100.00;98500.65;106890;1268;24253;-76
2023/10/04 03:18:50;;;;;;;5.20;3.10;;;;;;;13.29;100.00;98501.58;106813;1279;25584;-75
2023/10/04 03:21:20;;;;;;;6.60;3.80;;;;;;;13.27;100.00;98505.36;106446;1279;25682;-75
2023/10/04 03:23:49;;;;;;;5.50;3.40;;;;;;;13.29;100.00;98513.44;106912;1279;23246;-76
2023/10/04 03:26:19;;;;;;;6.90;3.90;;;;;;;13.29;100.00;98514.81;106890;1277;23149;-77
2023/10/04 03:28:51;;;;;;;6.00;3.40;;;;;;;13.26;100.00;98519.55;106439;1279;22544;-76
2023/10/04 03:31:20;;;;;;;7.30;3.60;;;;;;;13.27;100.00;98521.65;106508;1278;25431;-76
2023/10/04 03:33:53;;;;;;;9.70;3.90;;;;;;;13.27;100.00;98527.02;106834;1280;23874;-75
2023/10/04 03:36:25;;;;;;;6.70;3.70;;;;;;;13.25;100.00;98533.80;106925;1266;24282;-76
2023/10/04 03:38:57;;;;;;;6.80;3.80;;;;;;;13.19;100.00;98531.35;106788;1278;25477;-75
2023/10/04 03:41:25;;;;;;;7.20;3.90;;;;;;;13.11;100.00;98538.42;106840;1279;24044;-75
2023/10/04 03:43:57;;;;;;;7.10;3.90;;;;;;;13.06;100.00;98533.33;106759;1279;22574;-77
2023/10/04 03:46:26;;;;;;;8.20;5.00;;;;;;;13.02;100.00;98544.60;106797;1279;22567;-77
2023/10/04 03:48:58;;;;;;;6.90;4.10;;;;;;;12.99;100.00;98547.10;106819;1279;24303;-76
2023/10/04 03:51:29;;;;;;;8.70;3.90;;;;;;;12.95;100.00;98555.30;106761;1279;23290;-76
2023/10/04 03:54:00;;;;;;;8.20;4.10;;;;;;;12.88;100.00;98555.73;106815;1268;25315;-77
2023/10/04 03:56:31;;;;;;;11.80;4.70;;;;;;;12.83;100.00;98562.30;106468;1280;24267;-76
2023/10/04 03:59:03;;;;;;;6.80;3.90;;;;;;;12.72;100.00;98568.60;106802;1279;22832;-76
2023/10/04 04:01:32;;;;;;;6.60;4.10;;;;;;;12.67;100.00;98567.06;106838;1266;24048;-76
2023/10/04 04:04:03;;;;;;;7.90;3.80;;;;;;;12.65;100.00;98570.02;106440;1279;22525;-76
2023/10/04 04:06:32;;;;;;;7.60;4.30;;;;;;;12.60;100.00;98574.27;106725;1271;24259;-76
2023/10/04 04:09:04;;;;;;;7.30;4.50;;;;;;;12.58;100.00;98579.87;106397;1279;25513;-77
2023/10/04 04:11:33;;;;;;;6.50;3.60;;;;;;;12.55;100.00;98579.21;106752;1269;24273;-76
2023/10/04 04:14:01;;;;;;;6.00;3.50;;;;;;;12.54;100.00;98583.66;106751;1277;24335;-77
2023/10/04 04:16:29;;;;;;;9.20;3.90;;;;;;;12.53;100.00;98588.39;106797;1279;24219;-76
2023/10/04 04:18:59;;;;;;;6.10;3.50;;;;;;;12.50;100.00;98591.56;106448;1279;25681;-76
2023/10/04 04:21:32;;;;;;;6.10;3.90;;;;;;;12.45;100.00;98592.29;106798;1280;25383;-77
2023/10/04 04:24:01;;;;;;;7.20;4.10;;;;;;;12.44;100.00;98600.91;106783;1280;23899;-76
2023/10/04 04:26:30;;;;;;;6.20;3.50;;;;;;;12.41;100.00;98606.63;106835;1280;25569;-76
2023/10/04 04:28:59;;;;;;;6.50;3.20;;;;;;;12.36;100.00;98599.71;106649;1280;22535;-76
2023/10/04 04:31:29;;;;;;;10.40;4.30;;;;;;;12.31;100.00;98596.29;106801;1268;25578;-76
2023/10/04 04:33:58;;;;;;;5.20;3.70;;;;;;;12.27;100.00;98606.00;106792;1280;22531;-77
2023/10/04 04:36:27;;;;;;;7.30;3.80;;;;;;;12.28;100.00;98614.60;106781;1279;22541;-76
2023/10/04 04:39:05;;;;;;;6.30;3.60;;;;;;;12.24;100.00;98620.69;106959;1280;24340;-76
2023/10/04 04:41:36;;;;;;;9.40;3.60;;;;;;;12.21;100.00;98636.73;106964;1279;26678;-77
2023/10/04 04:44:07;;;;;;;6.30;3.70;;;;;;;12.19;100.00;98632.81;106614;1266;25705;-76
2023/10/04 04:46:39;;;;;;;6.30;3.50;;;;;;;12.16;100.00;98640.20;106758;1262;22549;-79
2023/10/04 04:49:08;;;;;;;7.30;4.00;;;;;;;12.17;100.00;98642.35;107276;1261;23916;-77
2023/10/04 04:51:36;;;;;;;10.40;4.60;;;;;;;12.16;100.00;98643.72;106929;1276;24303;-77
2023/10/04 04:54:06;;;;;;;8.50;3.70;;;;;;;12.14;100.00;98648.60;106859;1280;23886;-78
2023/10/04 04:56:35;;;;;;;7.50;3.70;;;;;;;12.10;100.00;98648.00;106817;1280;23889;-78
2023/10/04 04:59:10;;;;;;;9.20;4.00;;;;;;;12.08;100.00;98654.47;106684;1268;24468;-78
2023/10/04 05:01:40;;;;;;;7.40;3.80;;;;;;;12.05;100.00;98659.86;106844;1279;24264;-77
2023/10/04 05:04:09;;;;;;;10.20;4.50;;;;;;;12.00;100.00;98657.48;106863;1274;22649;-78
2023/10/04 05:06:39;;;;;;;6.70;3.50;;;;;;;11.96;100.00;98662.60;106857;1272;24195;-77
2023/10/04 05:09:10;;;;;;;7.10;4.30;;;;;;;11.94;100.00;98663.34;106883;1259;22539;-77
2023/10/04 05:11:39;;;;;;;8.90;4.20;;;;;;;11.95;100.00;98665.38;106855;1265;24347;-79
2023/10/04 05:14:09;;;;;;;9.00;4.30;;;;;;;11.93;100.00;98666.80;106742;1266;22565;-76
2023/10/04 05:16:38;;;;;;;9.40;4.10;;;;;;;11.87;100.00;98671.42;106814;1273;22534;-76
2023/10/04 05:19:11;;;;;;;7.70;3.80;;;;;;;11.88;100.00;98674.48;106881;1266;22553;-78
2023/10/04 05:21:39;;;;;;;7.30;3.70;;;;;;;11.89;100.00;98679.01;106774;1277;22544;-78
2023/10/04 05:24:07;;;;;;;8.90;4.10;;;;;;;11.89;100.00;98679.01;106771;1259;24222;-77
2023/10/04 05:26:37;;;;;;;8.20;4.40;;;;;;;11.87;100.00;98684.86;106697;1279;25506;-76
2023/10/04 05:29:05;;;;;;;9.00;4.10;;;;;;;11.81;100.00;98688.34;106715;1265;22527;-78
2023/10/04 05:31:33;;;;;;;10.50;4.10;;;;;;;11.80;100.00;98695.16;106743;1277;22535;-75
2023/10/04 05:34:01;;;;;;;11.90;4.60;;;;;;;11.81;100.00;98699.20;106524;1280;22534;-78
2023/10/04 05:36:30;;;;;;;7.60;4.20;;;;;;;11.81;100.00;98701.96;107332;1268;22524;-76
2023/10/04 05:39:01;;;;;;;12.30;4.40;;;;;;;11.77;100.00;98706.59;107184;1278;24370;-78
2023/10/04 05:41:31;;;;;;;9.70;4.00;;;;;;;11.76;100.00;98715.19;107140;1279;23323;-77
2023/10/04 05:43:59;;;;;;;8.60;4.80;;;;;;;11.78;100.00;98714.20;106621;1280;25467;-77
2023/10/04 05:46:28;;;;;;;8.30;4.20;;;;;;;11.79;100.00;98718.41;106824;1267;24393;-75
2023/10/04 05:48:56;;;;;;;10.90;4.60;;;;;;;11.82;100.00;98722.52;106627;1272;24369;-78
2023/10/04 05:51:24;;;;;;;9.30;4.80;;;;;;;11.83;100.00;98727.59;106987;1279;22751;-76
2023/10/04 05:53:53;;;;;;;11.60;4.20;;;;;;;11.86;100.00;98732.19;106553;1266;22545;-76
2023/10/04 05:56:25;;;;;;;7.80;4.40;;;;;;;11.89;100.00;98735.88;106542;1268;25549;-76
2023/10/04 05:58:53;;;;;;;11.40;4.60;;;;;;;11.91;99.93;98745.75;106889;1266;24979;-77
2023/10/04 06:01:22;;;;;;;10.90;4.30;;;;;;;11.91;99.79;98749.05;106894;1279;22993;-76
2023/10/04 06:03:50;;;;;;;8.60;4.20;;;;;;;11.88;98.87;98757.16;106487;1279;23384;-77
2023/10/04 06:06:19;;;;;;;11.70;4.30;;;;;;;11.87;98.87;98761.83;106493;1280;22553;-78
2023/10/04 06:08:48;;;;;;;7.70;4.00;;;;;;;11.85;98.89;98765.23;106784;1280;22764;-77
2023/10/04 06:11:15;;;;;;;8.50;3.70;;;;;;;11.88;98.82;98770.84;106767;1263;22573;-78
2023/10/04 06:13:43;;;;;;;8.10;3.80;;;;;;;11.89;98.81;98766.63;106704;1280;22572;-76
2023/10/04 06:16:18;;;;;;;7.40;4.10;;;;;;;11.89;98.72;98770.23;106765;1280;22754;-77
2023/10/04 06:18:49;;;;;;;8.30;4.60;;;;;;;11.89;98.70;98767.58;106842;1280;24378;-77
2023/10/04 06:21:17;;;;;;;6.60;3.60;;;;;;;11.93;98.89;98763.23;106438;1279;22703;-78
2023/10/04 06:23:46;;;;;;;10.10;3.80;;;;;;;11.97;98.47;98768.58;106761;1279;22620;-77
2023/10/04 06:26:16;;;;;;;9.90;4.70;;;;;;;12.01;97.85;98774.42;106826;1279;24366;-77
2023/10/04 06:28:46;;;;;;;8.60;4.20;;;;;;;12.01;97.77;98777.55;106721;1281;25410;-76
2023/10/04 06:31:14;;;;;;;12.80;4.00;;;;;;;12.01;97.31;98777.98;106826;1269;23912;-77
2023/10/04 06:33:42;;;;;;;8.00;4.10;;;;;;;12.03;97.60;98772.14;106746;1280;23346;-76
2023/10/04 06:36:11;;;;;;;8.80;4.40;;;;;;;12.08;97.54;98773.70;106791;1280;22730;-76
2023/10/04 06:38:39;;;;;;;10.60;4.70;;;;;;;12.07;96.83;98768.52;106776;1279;23986;-76
2023/10/04 06:41:07;;;;;;;9.30;3.70;;;;;;;12.04;96.14;98772.73;106810;1268;22545;-77
2023/10/04 06:43:35;;;;;;;8.40;4.50;;;;;;;12.06;96.03;98775.40;106799;1280;22539;-77
2023/10/04 06:46:03;;;;;;;11.30;4.60;;;;;;;12.08;96.26;98783.27;106827;1279;24339;-77
2023/10/04 06:48:32;;;;;;;7.00;3.90;;;;;;;12.08;96.23;98789.95;106836;1272;22562;-77
2023/10/04 06:51:00;;;;;;;9.30;4.10;;;;;;;12.10;96.02;98789.52;106867;1279;24328;-76
2023/10/04 06:53:28;;;;;;;8.50;4.00;;;;;;;12.15;96.24;98790.70;106867;1264;23119;-77
2023/10/04 06:55:57;;;;;;;16.70;5.40;;;;;;;12.20;95.74;98791.83;106858;1273;22696;-77
2023/10/04 06:58:25;;;;;;;9.00;3.90;;;;;;;12.23;94.42;98795.15;106858;1266;22540;-77
2023/10/04 07:00:52;;;;;;;12.90;3.80;;;;;;;12.22;93.86;98791.70;106734;1278;23890;-77
2023/10/04 07:03:21;;;;;;;7.20;4.00;;;;;;;12.23;94.25;98792.17;106828;1268;25516;-77
2023/10/04 07:05:50;;;;;;;8.90;3.60;;;;;;;12.29;94.61;98780.92;106784;1280;24375;-76
2023/10/04 07:08:18;;;;;;;9.00;4.40;;;;;;;12.38;94.56;98784.77;106832;1268;24076;-76
2023/10/04 07:10:46;;;;;;;8.20;3.70;;;;;;;12.50;93.66;98789.48;106532;1269;25762;-78
2023/10/04 07:13:14;;;;;;;8.30;4.00;;;;;;;12.58;93.07;98792.85;106809;1266;201448;-76
2023/10/04 07:15:44;;;;;;;10.80;3.70;;;;;;;12.62;93.40;98790.09;106970;1280;25583;-76
2023/10/04 07:18:13;;;;;;;9.00;4.20;;;;;;;12.69;93.12;98787.98;106866;1280;26715;-76
2023/10/04 07:20:42;;;;;;;11.10;3.80;;;;;;;12.77;93.19;98793.80;106856;1280;22569;-76
2023/10/04 07:23:13;;;;;;;8.20;4.60;;;;;;;12.84;93.18;98794.02;106787;1280;22585;-77
2023/10/04 07:25:49;;;;;;;8.20;4.00;;;;;;;12.93;92.99;98796.86;106834;1269;25629;-76
2023/10/04 07:28:17;;;;;;;8.70;4.50;;;;;;;13.01;92.73;98796.88;106822;1278;24090;-77
2023/10/04 07:30:45;;;;;;;8.00;4.10;;;;;;;13.03;92.70;98799.44;106798;1266;22736;-77
2023/10/04 07:33:13;;;;;;;10.90;3.90;;;;;;;13.08;92.36;98796.27;106822;1280;24315;-77
2023/10/04 07:35:41;;;;;;;10.30;4.50;;;;;;;13.09;91.69;98804.92;106480;1260;22532;-76
2023/10/04 07:38:09;;;;;;;7.40;3.80;;;;;;;13.07;91.37;98806.54;106801;1280;24209;-76
2023/10/04 07:40:37;;;;;;;7.40;3.70;;;;;;;13.07;90.74;98806.54;106812;1264;24221;-77
2023/10/04 07:43:07;;;;;;;11.70;4.50;;;;;;;13.09;91.47;98803.79;106425;1280;25383;-76
2023/10/04 07:45:35;;;;;;;7.70;3.90;;;;;;;13.20;91.38;98806.49;106849;1266;24272;-76
2023/10/04 07:48:04;;;;;;;7.30;4.00;;;;;;;13.25;89.87;98804.70;106461;1280;23120;-77
2023/10/04 07:50:33;;;;;;;5.70;3.30;;;;;;;13.29;90.08;98809.10;106808;1268;25535;-76
2023/10/04 07:53:04;;;;;;;10.70;4.30;;;;;;;13.34;89.55;98807.08;106769;1268;24355;-77
2023/10/04 07:55:34;;;;;;;9.40;3.90;;;;;;;13.43;90.12;98800.93;106807;1280;22822;-77
2023/10/04 07:58:06;;;;;;;9.60;4.10;;;;;;;13.60;90.30;98803.20;106783;1280;22498;-77
2023/10/04 08:00:38;;;;;;;7.70;3.90;;;;;;;13.77;89.67;98809.95;106652;1280;23248;-77
2023/10/04 08:03:08;;;;;;;6.60;3.50;;;;;;;13.84;88.12;98809.40;106651;1280;22542;-77
2023/10/04 08:05:39;;;;;;;10.40;4.10;;;;;;;13.86;87.84;98808.77;106668;1279;22545;-77
2023/10/04 08:08:07;;;;;;;7.70;4.20;;;;;;;13.94;85.91;98807.38;106790;1280;22603;-76
2023/10/04 08:10:37;;;;;;;7.40;4.20;;;;;;;13.92;86.26;98808.23;106476;1279;22629;-76
2023/10/04 08:13:06;;;;;;;7.00;3.60;;;;;;;13.96;85.53;98804.59;106528;1279;22753;-75
2023/10/04 08:15:36;;;;;;;6.30;3.60;;;;;;;13.98;84.97;98804.34;106795;1280;24373;-76
2023/10/04 08:18:05;;;;;;;10.30;3.80;;;;;;;13.99;84.97;98805.66;106812;1266;25524;-76
2023/10/04 08:20:36;;;;;;;6.80;3.50;;;;;;;14.01;83.55;98807.37;106523;1279;22610;-76
2023/10/04 08:23:05;;;;;;;5.60;3.10;;;;;;;14.00;83.14;98810.05;106482;1277;23994;-77
2023/10/04 08:25:34;;;;;;;6.20;3.30;;;;;;;14.04;82.33;98816.14;106794;1279;24255;-76
2023/10/04 08:28:06;;;;;;;8.00;4.00;;;;;;;14.08;81.53;98824.08;106890;1279;25369;-77
2023/10/04 08:30:38;;;;;;;6.20;3.20;;;;;;;14.07;81.43;98824.31;106616;1280;22548;-76
2023/10/04 08:33:08;;;;;;;7.10;3.50;;;;;;;14.07;81.00;98826.55;106819;1281;22583;-76
2023/10/04 08:35:36;;;;;;;7.60;3.50;;;;;;;14.05;80.27;98831.02;106889;1275;26208;-77
2023/10/04 08:38:05;;;;;;;6.20;3.60;;;;;;;14.03;79.80;98833.60;106740;1280;22606;-77
2023/10/04 08:40:42;;;;;;;5.00;3.30;;;;;;;14.02;80.32;98824.31;106828;1267;25284;-77
2023/10/04 08:43:10;;;;;;;7.50;3.80;;;;;;;14.11;81.01;98827.02;106788;1269;23887;-77
2023/10/04 08:45:42;;;;;;;8.70;4.10;;;;;;;14.27;81.30;98828.08;106668;1280;22537;-75
2023/10/04 08:48:11;;;;;;;7.60;3.40;;;;;;;14.39;79.51;98833.61;106805;1279;24221;-77
2023/10/04 08:50:39;;;;;;;6.60;3.50;;;;;;;14.40;78.28;98835.63;106772;1279;25347;-78
2023/10/04 08:53:16;;;;;;;6.90;3.80;;;;;;;14.44;78.11;98832.52;106472;1279;22578;-77
2023/10/04 08:55:51;;;;;;;5.90;3.40;;;;;;;14.56;77.75;98829.11;106814;1280;22593;-77
2023/10/04 08:58:20;;;;;;;7.00;3.40;;;;;;;14.69;77.88;98829.46;106826;1273;22795;-76
2023/10/04 09:00:50;;;;;;;7.00;3.20;;;;;;;14.86;76.71;98818.36;106805;1279;22587;-76
2023/10/04 09:03:23;;;;;;;6.70;4.00;;;;;;;14.95;76.32;98824.84;106899;1268;24206;-77
2023/10/04 09:05:54;;;;;;;9.50;3.70;;;;;;;15.05;76.05;98825.17;106851;1279;23449;-76
2023/10/04 09:08:25;;;;;;;5.00;3.20;;;;;;;15.14;75.31;98827.18;106923;1266;25211;-76
2023/10/04 09:10:54;;;;;;;6.40;3.60;;;;;;;15.10;73.52;98836.50;106828;1279;22537;-77
2023/10/04 09:13:22;;;;;;;5.50;3.20;;;;;;;14.94;72.65;98835.07;106848;1268;22558;-77
2023/10/04 09:15:51;;;;;;;8.80;4.20;;;;;;;14.86;73.04;98833.70;106881;1280;24242;-77
2023/10/04 09:18:28;;;;;;;6.90;3.30;;;;;;;14.90;73.74;98833.31;106862;1279;25699;-75
2023/10/04 09:20:57;;;;;;;6.50;3.60;;;;;;;15.00;72.26;98826.20;106641;1276;22541;-75
2023/10/04 09:23:27;;;;;;;7.50;3.60;;;;;;;15.07;70.86;98827.66;106490;1267;22541;-76
2023/10/04 09:25:55;;;;;;;8.00;3.90;;;;;;;15.19;70.59;98825.50;106706;1279;25539;-76
2023/10/04 09:28:40;;;;;;;7.70;3.70;;;;;;;15.25;69.17;98814.95;106768;1279;23904;-76
2023/10/04 09:31:13;;;;;;;4.60;2.80;;;;;;;15.30;69.11;98820.58;106700;1265;22534;-76
2023/10/04 09:33:41;;;;;;;6.40;3.60;;;;;;;15.44;70.04;98816.95;106947;1279;24511;-76
2023/10/04 09:36:10;;;;;;;7.80;3.50;;;;;;;15.53;68.22;98818.36;106925;1275;25438;-76
2023/10/04 09:38:39;;;;;;;6.80;3.20;;;;;;;15.58;68.66;98812.10;106967;1279;22538;-76
2023/10/04 09:41:10;;;;;;;4.80;3.30;;;;;;;15.66;67.52;98818.27;106900;1267;22730;-77
2023/10/04 09:43:40;;;;;;;5.80;3.40;;;;;;;15.59;66.38;98823.58;106865;1274;25239;-77
2023/10/04 09:46:10;;;;;;;5.30;3.00;;;;;;;15.48;65.78;98813.14;107000;1280;22576;-76
2023/10/04 09:48:43;;;;;;;6.90;3.20;;;;;;;15.41;65.60;98820.38;106910;1280;24218;-75
2023/10/04 09:51:13;;;;;;;7.50;3.10;;;;;;;15.32;66.76;98814.77;106490;1268;24253;-76
2023/10/04 09:53:43;;;;;;;7.40;3.30;;;;;;;15.37;67.06;98810.09;107010;1267;25283;-77
2023/10/04 09:56:13;;;;;;;7.70;3.80;;;;;;;15.50;66.28;98812.68;107000;1279;23315;-77
2023/10/04 09:58:50;;;;;;;5.60;2.90;;;;;;;15.60;66.36;98804.67;106617;1264;23886;-76
2023/10/04 10:01:23;;;;;;;6.00;3.30;;;;;;;15.74;66.08;98809.39;106533;1279;22548;-76
2023/10/04 10:03:54;;;;;;;8.40;3.30;;;;;;;15.90;66.19;98807.36;106810;1279;22547;-78
2023/10/04 10:06:23;;;;;;;6.30;3.10;;;;;;;15.97;65.29;98812.02;106895;1279;24263;-76
2023/10/04 10:08:58;;;;;;;5.60;2.70;;;;;;;15.94;65.26;98801.39;106413;1280;25483;-76
2023/10/04 10:11:27;;;;;;;9.30;3.10;;;;;;;16.03;64.80;98807.95;106510;1270;22544;-76
2023/10/04 10:13:57;;;;;;;6.70;3.10;;;;;;;16.04;64.05;98804.05;106446;1280;24238;-77
2023/10/04 10:16:26;;;;;;;9.00;3.80;;;;;;;16.05;63.85;98798.48;106952;1280;22547;-76
2023/10/04 10:18:57;;;;;;;8.10;3.10;;;;;;;16.18;63.82;98790.43;106789;1267;22559;-77
2023/10/04 10:22:02;;;;;;;5.80;2.90;;;;;;;16.37;64.71;98795.81;106506;1270;25283;-75
2023/10/04 10:24:30;;;;;;;7.00;3.40;;;;;;;16.57;64.60;98788.45;106819;1280;24256;-77
2023/10/04 10:27:03;;;;;;;5.20;3.30;;;;;;;16.78;63.87;98789.98;106794;1280;22570;-76
2023/10/04 10:29:32;;;;;;;6.10;3.20;;;;;;;16.90;62.21;98795.59;106863;1281;22549;-77
2023/10/04 10:32:01;;;;;;;5.60;2.90;;;;;;;16.70;61.75;98798.60;106899;1274;22975;-77
2023/10/04 10:34:30;;;;;;;6.10;3.80;;;;;;;16.55;62.50;98799.55;106912;1280;22541;-76
2023/10/04 10:37:17;;;;;;;6.80;3.70;;;;;;;16.34;62.59;98798.07;106455;1280;22558;-76
2023/10/04 10:39:48;;;;;;;5.00;3.10;;;;;;;16.11;62.19;98805.62;106387;1269;22555;-77
2023/10/04 10:42:18;;;;;;;5.70;3.20;;;;;;;16.13;62.78;98799.36;106504;1280;22745;-77
2023/10/04 10:44:48;;;;;;;5.60;3.00;;;;;;;16.17;62.69;98798.77;106491;1280;22537;-76
2023/10/04 10:47:25;;;;;;;5.30;3.10;;;;;;;16.11;62.58;98798.74;106848;1280;25433;-76
2023/10/04 10:50:12;;;;;;;4.60;3.10;;;;;;;15.97;60.39;98803.83;106909;1281;24452;-76
2023/10/04 10:52:44;;;;;;;4.70;2.90;;;;;;;15.89;61.06;98804.72;106824;1279;22547;-76
2023/10/04 10:55:17;;;;;;;5.20;3.00;;;;;;;15.80;61.38;98808.52;106456;1273;22653;-75
2023/10/04 10:57:50;;;;;;;5.30;3.10;;;;;;;15.68;62.32;98802.79;106866;1278;22556;-76
2023/10/04 11:02:48;;;;;;;6.10;3.50;;;;;;;15.53;60.85;98803.14;106853;1268;23297;-77
2023/10/04 11:05:17;;;;;;;7.20;3.50;;;;;;;15.47;60.69;98806.59;106883;1267;22537;-76
2023/10/04 11:07:46;;;;;;;4.60;3.30;;;;;;;15.43;60.37;98810.84;106513;1280;24362;-75
2023/10/04 11:10:16;;;;;;;6.00;3.10;;;;;;;15.34;59.91;98808.60;107015;1268;24219;-76
2023/10/04 11:12:44;;;;;;;4.30;3.00;;;;;;;15.26;60.06;98805.85;106788;1272;22596;-77
2023/10/04 11:15:17;;;;;;;5.20;3.00;;;;;;;15.23;60.04;98800.60;106740;1280;22642;-76
2023/10/04 11:17:46;;;;;;;4.60;3.00;;;;;;;15.31;60.63;98806.81;106844;1267;25519;-77
2023/10/04 11:20:17;;;;;;;5.00;3.40;;;;;;;15.46;60.95;98798.42;106825;1280;25365;-76
2023/10/04 11:22:47;;;;;;;5.40;3.20;;;;;;;15.59;60.75;98802.52;106493;1266;22627;-77
2023/10/04 11:25:16;;;;;;;6.20;2.90;;;;;;;15.62;60.60;98800.97;106904;1280;22547;-76
2023/10/04 11:27:51;;;;;;;4.70;2.90;;;;;;;15.62;60.72;98795.86;106850;1264;23317;-77
2023/10/04 11:30:23;;;;;;;5.90;3.50;;;;;;;15.63;60.63;98801.80;106780;1280;25386;-76
2023/10/04 11:32:52;;;;;;;5.80;3.00;;;;;;;15.66;60.62;98802.34;106486;1280;25244;-77
2023/10/04 11:35:20;;;;;;;3.10;2.40;;;;;;;15.75;59.80;98799.04;106788;1280;25503;-76